sensor_id;sensor_type;location;lat;lon;timestamp;P1;durP1;ratioP1;P2;durP2;ratioP2
16436;SDS011;8328;52.206;21.006;2023-06-22T00:00:53;35.57;;;32.00;;
16436;SDS011;8328;52.206;21.006;2023-06-22T00:03:22;33.77;;;30.27;;
16436;SDS011;8328;52.206;21.006;2023-06-22T00:05:50;34.57;;;31.10;;
16436;SDS011;8328;52.206;21.006;2023-06-22T00:08:16;33.30;;;29.90;;
16436;SDS011;8328;52.206;21.006;2023-06-22T00:10:43;33.97;;;30.30;;
16436;SDS011;8328;52.206;21.006;2023-06-22T00:13:09;33.07;;;29.40;;
16436;SDS011;8328;52.206;21.006;2023-06-22T00:15:35;32.87;;;29.67;;
16436;SDS011;8328;52.206;21.006;2023-06-22T00:18:02;33.03;;;29.47;;
16436;SDS011;8328;52.206;21.006;2023-06-22T00:20:28;33.10;;;29.70;;
16436;SDS011;8328;52.206;21.006;2023-06-22T00:22:58;33.30;;;29.80;;
16436;SDS011;8328;52.206;21.006;2023-06-22T00:25:25;33.47;;;30.07;;
16436;SDS011;8328;52.206;21.006;2023-06-22T00:27:51;33.20;;;29.67;;
16436;SDS011;8328;52.206;21.006;2023-06-22T00:30:18;33.80;;;30.30;;
16436;SDS011;8328;52.206;21.006;2023-06-22T00:32:44;32.90;;;29.50;;
16436;SDS011;8328;52.206;21.006;2023-06-22T00:35:14;32.90;;;29.50;;
16436;SDS011;8328;52.206;21.006;2023-06-22T00:37:41;32.50;;;29.10;;
16436;SDS011;8328;52.206;21.006;2023-06-22T00:40:08;34.50;;;30.83;;
16436;SDS011;8328;52.206;21.006;2023-06-22T00:42:36;33.87;;;30.27;;
16436;SDS011;8328;52.206;21.006;2023-06-22T00:45:02;33.10;;;29.57;;
16436;SDS011;8328;52.206;21.006;2023-06-22T00:47:29;33.27;;;29.77;;
16436;SDS011;8328;52.206;21.006;2023-06-22T00:49:55;34.00;;;30.07;;
16436;SDS011;8328;52.206;21.006;2023-06-22T00:52:24;34.03;;;30.33;;
16436;SDS011;8328;52.206;21.006;2023-06-22T00:54:54;33.17;;;29.73;;
16436;SDS011;8328;52.206;21.006;2023-06-22T00:57:20;33.30;;;29.47;;
16436;SDS011;8328;52.206;21.006;2023-06-22T00:59:48;32.47;;;29.17;;
16436;SDS011;8328;52.206;21.006;2023-06-22T01:02:14;33.93;;;30.30;;
16436;SDS011;8328;52.206;21.006;2023-06-22T01:04:40;33.57;;;30.17;;
16436;SDS011;8328;52.206;21.006;2023-06-22T01:09:41;34.00;;;30.53;;
16436;SDS011;8328;52.206;21.006;2023-06-22T01:12:10;32.97;;;29.43;;
16436;SDS011;8328;52.206;21.006;2023-06-22T01:14:50;33.40;;;29.97;;
16436;SDS011;8328;52.206;21.006;2023-06-22T01:17:20;32.87;;;29.40;;
16436;SDS011;8328;52.206;21.006;2023-06-22T01:22:13;32.40;;;29.03;;
16436;SDS011;8328;52.206;21.006;2023-06-22T01:24:44;32.40;;;29.03;;
16436;SDS011;8328;52.206;21.006;2023-06-22T01:27:28;32.53;;;29.10;;
16436;SDS011;8328;52.206;21.006;2023-06-22T01:29:58;32.00;;;28.87;;
16436;SDS011;8328;52.206;21.006;2023-06-22T01:32:30;34.23;;;30.63;;
16436;SDS011;8328;52.206;21.006;2023-06-22T01:34:58;33.10;;;29.60;;
16436;SDS011;8328;52.206;21.006;2023-06-22T01:37:27;34.80;;;31.20;;
16436;SDS011;8328;52.206;21.006;2023-06-22T01:39:53;33.93;;;30.33;;
16436;SDS011;8328;52.206;21.006;2023-06-22T01:42:22;32.60;;;29.10;;
16436;SDS011;8328;52.206;21.006;2023-06-22T01:44:49;33.83;;;29.33;;
16436;SDS011;8328;52.206;21.006;2023-06-22T01:47:16;33.37;;;29.80;;
16436;SDS011;8328;52.206;21.006;2023-06-22T01:49:42;33.87;;;30.37;;
16436;SDS011;8328;52.206;21.006;2023-06-22T01:52:08;33.07;;;29.67;;
16436;SDS011;8328;52.206;21.006;2023-06-22T01:54:35;33.00;;;29.50;;
16436;SDS011;8328;52.206;21.006;2023-06-22T01:57:01;32.50;;;29.17;;
16436;SDS011;8328;52.206;21.006;2023-06-22T02:02:04;33.27;;;28.80;;
16436;SDS011;8328;52.206;21.006;2023-06-22T02:04:41;34.17;;;30.47;;
16436;SDS011;8328;52.206;21.006;2023-06-22T02:07:09;33.73;;;30.13;;
16436;SDS011;8328;52.206;21.006;2023-06-22T02:09:38;33.40;;;29.77;;
16436;SDS011;8328;52.206;21.006;2023-06-22T02:12:04;33.80;;;29.87;;
16436;SDS011;8328;52.206;21.006;2023-06-22T02:14:31;33.30;;;30.00;;
16436;SDS011;8328;52.206;21.006;2023-06-22T02:16:57;33.80;;;30.27;;
16436;SDS011;8328;52.206;21.006;2023-06-22T02:19:24;35.43;;;31.63;;
16436;SDS011;8328;52.206;21.006;2023-06-22T02:21:51;35.10;;;31.50;;
16436;SDS011;8328;52.206;21.006;2023-06-22T02:24:17;35.27;;;31.47;;
16436;SDS011;8328;52.206;21.006;2023-06-22T02:26:43;35.57;;;31.97;;
16436;SDS011;8328;52.206;21.006;2023-06-22T02:29:11;36.17;;;32.63;;
16436;SDS011;8328;52.206;21.006;2023-06-22T02:31:37;37.37;;;32.23;;
16436;SDS011;8328;52.206;21.006;2023-06-22T02:34:08;37.73;;;33.70;;
16436;SDS011;8328;52.206;21.006;2023-06-22T02:36:34;37.43;;;33.33;;
16436;SDS011;8328;52.206;21.006;2023-06-22T02:39:00;39.07;;;33.40;;
16436;SDS011;8328;52.206;21.006;2023-06-22T02:41:28;37.80;;;33.90;;
16436;SDS011;8328;52.206;21.006;2023-06-22T02:43:54;38.97;;;34.87;;
16436;SDS011;8328;52.206;21.006;2023-06-22T02:46:21;41.90;;;36.57;;
16436;SDS011;8328;52.206;21.006;2023-06-22T02:48:47;44.30;;;36.10;;
16436;SDS011;8328;52.206;21.006;2023-06-22T02:51:13;45.27;;;37.73;;
16436;SDS011;8328;52.206;21.006;2023-06-22T02:53:40;43.23;;;38.57;;
16436;SDS011;8328;52.206;21.006;2023-06-22T02:56:09;43.07;;;38.33;;
16436;SDS011;8328;52.206;21.006;2023-06-22T02:58:35;44.07;;;37.77;;
16436;SDS011;8328;52.206;21.006;2023-06-22T03:01:04;44.30;;;35.30;;
16436;SDS011;8328;52.206;21.006;2023-06-22T03:03:35;43.07;;;38.40;;
16436;SDS011;8328;52.206;21.006;2023-06-22T03:06:01;44.60;;;39.80;;
16436;SDS011;8328;52.206;21.006;2023-06-22T03:08:27;44.97;;;38.37;;
16436;SDS011;8328;52.206;21.006;2023-06-22T03:10:57;45.20;;;39.50;;
16436;SDS011;8328;52.206;21.006;2023-06-22T03:13:23;45.07;;;38.87;;
16436;SDS011;8328;52.206;21.006;2023-06-22T03:15:49;43.20;;;37.67;;
16436;SDS011;8328;52.206;21.006;2023-06-22T03:18:15;45.97;;;38.17;;
16436;SDS011;8328;52.206;21.006;2023-06-22T03:20:41;43.17;;;36.57;;
16436;SDS011;8328;52.206;21.006;2023-06-22T03:23:09;45.57;;;38.10;;
16436;SDS011;8328;52.206;21.006;2023-06-22T03:25:35;42.23;;;37.40;;
16436;SDS011;8328;52.206;21.006;2023-06-22T03:28:01;44.60;;;36.27;;
16436;SDS011;8328;52.206;21.006;2023-06-22T03:30:27;45.33;;;38.17;;
16436;SDS011;8328;52.206;21.006;2023-06-22T03:32:53;44.00;;;37.03;;
16436;SDS011;8328;52.206;21.006;2023-06-22T03:35:19;42.20;;;36.83;;
16436;SDS011;8328;52.206;21.006;2023-06-22T03:37:45;44.50;;;38.93;;
16436;SDS011;8328;52.206;21.006;2023-06-22T03:40:11;41.17;;;36.67;;
16436;SDS011;8328;52.206;21.006;2023-06-22T03:42:37;43.60;;;36.50;;
16436;SDS011;8328;52.206;21.006;2023-06-22T03:45:04;37.17;;;33.13;;
16436;SDS011;8328;52.206;21.006;2023-06-22T03:47:30;39.57;;;35.27;;
16436;SDS011;8328;52.206;21.006;2023-06-22T03:49:56;40.60;;;35.90;;
16436;SDS011;8328;52.206;21.006;2023-06-22T03:52:22;40.23;;;34.57;;
16436;SDS011;8328;52.206;21.006;2023-06-22T03:54:50;38.83;;;32.93;;
16436;SDS011;8328;52.206;21.006;2023-06-22T03:57:16;36.73;;;32.73;;
16436;SDS011;8328;52.206;21.006;2023-06-22T03:59:42;37.47;;;33.37;;
16436;SDS011;8328;52.206;21.006;2023-06-22T04:02:08;35.17;;;31.37;;
16436;SDS011;8328;52.206;21.006;2023-06-22T04:04:34;35.40;;;31.63;;
16436;SDS011;8328;52.206;21.006;2023-06-22T04:07:00;36.60;;;32.60;;
16436;SDS011;8328;52.206;21.006;2023-06-22T04:09:26;35.87;;;31.37;;
16436;SDS011;8328;52.206;21.006;2023-06-22T04:11:52;34.07;;;30.20;;
16436;SDS011;8328;52.206;21.006;2023-06-22T04:14:18;33.80;;;30.30;;
16436;SDS011;8328;52.206;21.006;2023-06-22T04:16:44;34.27;;;30.47;;
16436;SDS011;8328;52.206;21.006;2023-06-22T04:19:11;32.87;;;29.20;;
16436;SDS011;8328;52.206;21.006;2023-06-22T04:21:41;32.27;;;28.73;;
16436;SDS011;8328;52.206;21.006;2023-06-22T04:24:08;33.53;;;30.00;;
16436;SDS011;8328;52.206;21.006;2023-06-22T04:26:34;34.03;;;28.77;;
16436;SDS011;8328;52.206;21.006;2023-06-22T04:29:06;30.67;;;27.37;;
16436;SDS011;8328;52.206;21.006;2023-06-22T04:31:36;31.13;;;27.90;;
16436;SDS011;8328;52.206;21.006;2023-06-22T04:34:06;30.47;;;26.47;;
16436;SDS011;8328;52.206;21.006;2023-06-22T04:36:36;29.27;;;26.20;;
16436;SDS011;8328;52.206;21.006;2023-06-22T04:39:06;29.73;;;26.73;;
16436;SDS011;8328;52.206;21.006;2023-06-22T04:41:43;31.10;;;26.13;;
16436;SDS011;8328;52.206;21.006;2023-06-22T04:44:13;30.53;;;27.20;;
16436;SDS011;8328;52.206;21.006;2023-06-22T04:46:59;31.60;;;25.87;;
16436;SDS011;8328;52.206;21.006;2023-06-22T04:49:27;29.77;;;26.77;;
16436;SDS011;8328;52.206;21.006;2023-06-22T04:52:01;32.23;;;24.97;;
16436;SDS011;8328;52.206;21.006;2023-06-22T04:54:28;28.40;;;25.40;;
16436;SDS011;8328;52.206;21.006;2023-06-22T04:56:54;29.13;;;25.67;;
16436;SDS011;8328;52.206;21.006;2023-06-22T04:59:23;30.87;;;26.60;;
16436;SDS011;8328;52.206;21.006;2023-06-22T05:01:55;30.47;;;26.63;;
16436;SDS011;8328;52.206;21.006;2023-06-22T05:04:21;27.50;;;24.53;;
16436;SDS011;8328;52.206;21.006;2023-06-22T05:06:48;28.00;;;25.00;;
16436;SDS011;8328;52.206;21.006;2023-06-22T05:09:18;28.03;;;25.20;;
16436;SDS011;8328;52.206;21.006;2023-06-22T05:11:47;29.00;;;25.90;;
16436;SDS011;8328;52.206;21.006;2023-06-22T05:14:13;29.90;;;26.90;;
16436;SDS011;8328;52.206;21.006;2023-06-22T05:16:41;29.07;;;25.23;;
16436;SDS011;8328;52.206;21.006;2023-06-22T05:19:07;26.33;;;23.53;;
16436;SDS011;8328;52.206;21.006;2023-06-22T05:21:34;29.60;;;24.67;;
16436;SDS011;8328;52.206;21.006;2023-06-22T05:24:00;27.43;;;24.60;;
16436;SDS011;8328;52.206;21.006;2023-06-22T05:26:28;26.93;;;23.97;;
16436;SDS011;8328;52.206;21.006;2023-06-22T05:28:54;26.97;;;24.07;;
16436;SDS011;8328;52.206;21.006;2023-06-22T05:31:20;27.70;;;24.20;;
16436;SDS011;8328;52.206;21.006;2023-06-22T05:33:47;26.40;;;23.57;;
16436;SDS011;8328;52.206;21.006;2023-06-22T05:36:13;26.93;;;23.37;;
16436;SDS011;8328;52.206;21.006;2023-06-22T05:38:40;26.83;;;24.03;;
16436;SDS011;8328;52.206;21.006;2023-06-22T05:41:06;26.77;;;24.00;;
16436;SDS011;8328;52.206;21.006;2023-06-22T05:43:32;27.10;;;24.40;;
16436;SDS011;8328;52.206;21.006;2023-06-22T05:45:59;27.60;;;24.00;;
16436;SDS011;8328;52.206;21.006;2023-06-22T05:48:25;28.23;;;23.97;;
16436;SDS011;8328;52.206;21.006;2023-06-22T05:50:52;26.37;;;23.60;;
16436;SDS011;8328;52.206;21.006;2023-06-22T05:53:18;30.37;;;27.17;;
16436;SDS011;8328;52.206;21.006;2023-06-22T05:55:44;26.17;;;23.37;;
16436;SDS011;8328;52.206;21.006;2023-06-22T05:58:10;25.40;;;22.70;;
16436;SDS011;8328;52.206;21.006;2023-06-22T06:00:38;24.93;;;22.27;;
16436;SDS011;8328;52.206;21.006;2023-06-22T06:03:04;24.03;;;21.47;;
16436;SDS011;8328;52.206;21.006;2023-06-22T06:05:30;24.47;;;22.00;;
16436;SDS011;8328;52.206;21.006;2023-06-22T06:07:57;25.80;;;21.80;;
16436;SDS011;8328;52.206;21.006;2023-06-22T06:10:23;23.67;;;20.83;;
16436;SDS011;8328;52.206;21.006;2023-06-22T06:12:50;22.47;;;20.07;;
16436;SDS011;8328;52.206;21.006;2023-06-22T06:15:16;22.67;;;20.23;;
16436;SDS011;8328;52.206;21.006;2023-06-22T06:17:50;22.73;;;20.27;;
16436;SDS011;8328;52.206;21.006;2023-06-22T06:20:21;24.30;;;20.07;;
16436;SDS011;8328;52.206;21.006;2023-06-22T06:22:47;23.73;;;21.33;;
16436;SDS011;8328;52.206;21.006;2023-06-22T06:25:14;24.07;;;20.57;;
16436;SDS011;8328;52.206;21.006;2023-06-22T06:27:46;22.03;;;19.50;;
16436;SDS011;8328;52.206;21.006;2023-06-22T06:30:13;21.50;;;19.40;;
16436;SDS011;8328;52.206;21.006;2023-06-22T06:32:40;22.37;;;20.07;;
16436;SDS011;8328;52.206;21.006;2023-06-22T06:35:07;20.77;;;18.83;;
16436;SDS011;8328;52.206;21.006;2023-06-22T06:37:37;21.73;;;19.50;;
16436;SDS011;8328;52.206;21.006;2023-06-22T06:40:04;20.47;;;18.23;;
16436;SDS011;8328;52.206;21.006;2023-06-22T06:42:35;22.97;;;18.33;;
16436;SDS011;8328;52.206;21.006;2023-06-22T06:45:03;19.40;;;17.17;;
16436;SDS011;8328;52.206;21.006;2023-06-22T06:47:29;19.30;;;17.30;;
16436;SDS011;8328;52.206;21.006;2023-06-22T06:49:55;18.47;;;16.60;;
16436;SDS011;8328;52.206;21.006;2023-06-22T06:52:22;17.53;;;15.80;;
16436;SDS011;8328;52.206;21.006;2023-06-22T06:54:48;16.67;;;14.90;;
16436;SDS011;8328;52.206;21.006;2023-06-22T06:57:16;17.43;;;15.63;;
16436;SDS011;8328;52.206;21.006;2023-06-22T06:59:42;17.13;;;15.37;;
16436;SDS011;8328;52.206;21.006;2023-06-22T07:02:09;16.40;;;14.87;;
16436;SDS011;8328;52.206;21.006;2023-06-22T07:04:35;18.30;;;14.93;;
16436;SDS011;8328;52.206;21.006;2023-06-22T07:07:02;17.17;;;15.47;;
16436;SDS011;8328;52.206;21.006;2023-06-22T07:09:29;19.77;;;15.30;;
16436;SDS011;8328;52.206;21.006;2023-06-22T07:11:55;16.33;;;14.73;;
16436;SDS011;8328;52.206;21.006;2023-06-22T07:14:21;16.60;;;14.93;;
16436;SDS011;8328;52.206;21.006;2023-06-22T07:16:48;16.43;;;14.83;;
16436;SDS011;8328;52.206;21.006;2023-06-22T07:19:14;18.27;;;14.93;;
16436;SDS011;8328;52.206;21.006;2023-06-22T07:21:40;15.13;;;13.73;;
16436;SDS011;8328;52.206;21.006;2023-06-22T07:24:06;16.47;;;13.93;;
16436;SDS011;8328;52.206;21.006;2023-06-22T07:26:33;14.27;;;12.97;;
16436;SDS011;8328;52.206;21.006;2023-06-22T07:28:59;14.90;;;13.50;;
16436;SDS011;8328;52.206;21.006;2023-06-22T07:31:25;14.10;;;11.83;;
16436;SDS011;8328;52.206;21.006;2023-06-22T07:33:52;10.23;;;9.23;;
16436;SDS011;8328;52.206;21.006;2023-06-22T07:36:18;10.27;;;9.17;;
16436;SDS011;8328;52.206;21.006;2023-06-22T07:38:44;10.17;;;8.70;;
16436;SDS011;8328;52.206;21.006;2023-06-22T07:41:11;11.37;;;9.17;;
16436;SDS011;8328;52.206;21.006;2023-06-22T07:43:37;9.13;;;8.30;;
16436;SDS011;8328;52.206;21.006;2023-06-22T07:46:03;10.37;;;8.40;;
16436;SDS011;8328;52.206;21.006;2023-06-22T07:48:29;9.77;;;8.60;;
16436;SDS011;8328;52.206;21.006;2023-06-22T07:50:56;8.63;;;7.53;;
16436;SDS011;8328;52.206;21.006;2023-06-22T07:53:22;9.73;;;8.73;;
16436;SDS011;8328;52.206;21.006;2023-06-22T07:55:48;10.47;;;8.37;;
16436;SDS011;8328;52.206;21.006;2023-06-22T07:58:14;9.13;;;7.53;;
16436;SDS011;8328;52.206;21.006;2023-06-22T08:00:41;9.33;;;7.83;;
16436;SDS011;8328;52.206;21.006;2023-06-22T08:03:07;9.77;;;7.70;;
16436;SDS011;8328;52.206;21.006;2023-06-22T08:05:33;10.10;;;6.40;;
16436;SDS011;8328;52.206;21.006;2023-06-22T08:07:59;8.33;;;6.50;;
16436;SDS011;8328;52.206;21.006;2023-06-22T08:10:25;7.03;;;6.33;;
16436;SDS011;8328;52.206;21.006;2023-06-22T08:12:51;8.70;;;6.70;;
16436;SDS011;8328;52.206;21.006;2023-06-22T08:15:17;7.47;;;6.67;;
16436;SDS011;8328;52.206;21.006;2023-06-22T08:17:44;11.87;;;6.77;;
16436;SDS011;8328;52.206;21.006;2023-06-22T08:20:14;7.07;;;6.37;;
16436;SDS011;8328;52.206;21.006;2023-06-22T08:22:40;8.07;;;6.07;;
16436;SDS011;8328;52.206;21.006;2023-06-22T08:25:07;7.60;;;6.10;;
16436;SDS011;8328;52.206;21.006;2023-06-22T08:27:39;6.30;;;5.70;;
16436;SDS011;8328;52.206;21.006;2023-06-22T08:30:06;7.43;;;5.83;;
16436;SDS011;8328;52.206;21.006;2023-06-22T08:32:32;10.67;;;5.93;;
16436;SDS011;8328;52.206;21.006;2023-06-22T08:34:58;7.33;;;5.73;;
16436;SDS011;8328;52.206;21.006;2023-06-22T08:37:24;6.47;;;5.87;;
16436;SDS011;8328;52.206;21.006;2023-06-22T08:39:58;5.97;;;4.90;;
16436;SDS011;8328;52.206;21.006;2023-06-22T08:42:26;5.13;;;4.50;;
16436;SDS011;8328;52.206;21.006;2023-06-22T08:44:53;6.20;;;5.30;;
16436;SDS011;8328;52.206;21.006;2023-06-22T08:47:19;4.90;;;4.40;;
16436;SDS011;8328;52.206;21.006;2023-06-22T08:49:46;5.73;;;4.37;;
16436;SDS011;8328;52.206;21.006;2023-06-22T08:52:12;5.83;;;5.10;;
16436;SDS011;8328;52.206;21.006;2023-06-22T08:54:38;5.53;;;5.03;;
16436;SDS011;8328;52.206;21.006;2023-06-22T08:57:04;7.27;;;5.47;;
16436;SDS011;8328;52.206;21.006;2023-06-22T08:59:30;7.70;;;5.40;;
16436;SDS011;8328;52.206;21.006;2023-06-22T09:01:56;6.63;;;5.43;;
16436;SDS011;8328;52.206;21.006;2023-06-22T09:04:23;7.50;;;4.80;;
16436;SDS011;8328;52.206;21.006;2023-06-22T09:06:49;6.87;;;5.27;;
16436;SDS011;8328;52.206;21.006;2023-06-22T09:09:16;6.80;;;5.23;;
16436;SDS011;8328;52.206;21.006;2023-06-22T09:11:42;4.97;;;4.57;;
16436;SDS011;8328;52.206;21.006;2023-06-22T09:14:09;6.27;;;4.70;;
16436;SDS011;8328;52.206;21.006;2023-06-22T09:16:35;4.63;;;3.93;;
16436;SDS011;8328;52.206;21.006;2023-06-22T09:19:01;5.70;;;3.90;;
16436;SDS011;8328;52.206;21.006;2023-06-22T09:21:28;6.27;;;4.40;;
16436;SDS011;8328;52.206;21.006;2023-06-22T09:24:09;4.83;;;3.80;;
16436;SDS011;8328;52.206;21.006;2023-06-22T09:26:35;6.10;;;3.83;;
16436;SDS011;8328;52.206;21.006;2023-06-22T09:29:01;5.87;;;4.10;;
16436;SDS011;8328;52.206;21.006;2023-06-22T09:31:31;4.03;;;3.60;;
16436;SDS011;8328;52.206;21.006;2023-06-22T09:33:57;4.00;;;3.57;;
16436;SDS011;8328;52.206;21.006;2023-06-22T09:36:23;4.87;;;3.77;;
16436;SDS011;8328;52.206;21.006;2023-06-22T09:38:49;5.27;;;3.53;;
16436;SDS011;8328;52.206;21.006;2023-06-22T09:41:21;6.00;;;2.90;;
16436;SDS011;8328;52.206;21.006;2023-06-22T09:43:47;6.80;;;4.37;;
16436;SDS011;8328;52.206;21.006;2023-06-22T09:46:17;6.10;;;4.07;;
16436;SDS011;8328;52.206;21.006;2023-06-22T09:48:46;4.33;;;3.87;;
16436;SDS011;8328;52.206;21.006;2023-06-22T09:51:12;7.07;;;3.77;;
16436;SDS011;8328;52.206;21.006;2023-06-22T09:53:38;5.80;;;3.37;;
16436;SDS011;8328;52.206;21.006;2023-06-22T09:56:05;4.10;;;3.43;;
16436;SDS011;8328;52.206;21.006;2023-06-22T09:58:31;4.77;;;3.27;;
16436;SDS011;8328;52.206;21.006;2023-06-22T10:00:57;6.23;;;3.50;;
16436;SDS011;8328;52.206;21.006;2023-06-22T10:03:24;3.97;;;3.40;;
16436;SDS011;8328;52.206;21.006;2023-06-22T10:05:50;3.80;;;3.40;;
16436;SDS011;8328;52.206;21.006;2023-06-22T10:08:17;5.40;;;3.20;;
16436;SDS011;8328;52.206;21.006;2023-06-22T10:10:43;5.10;;;3.30;;
16436;SDS011;8328;52.206;21.006;2023-06-22T10:13:09;3.50;;;3.10;;
16436;SDS011;8328;52.206;21.006;2023-06-22T10:15:36;3.73;;;3.20;;
16436;SDS011;8328;52.206;21.006;2023-06-22T10:18:02;3.90;;;3.50;;
16436;SDS011;8328;52.206;21.006;2023-06-22T10:20:28;3.93;;;3.43;;
16436;SDS011;8328;52.206;21.006;2023-06-22T10:22:54;4.33;;;3.93;;
16436;SDS011;8328;52.206;21.006;2023-06-22T10:25:21;5.50;;;3.60;;
16436;SDS011;8328;52.206;21.006;2023-06-22T10:27:47;4.20;;;3.70;;
16436;SDS011;8328;52.206;21.006;2023-06-22T10:30:16;5.60;;;3.47;;
16436;SDS011;8328;52.206;21.006;2023-06-22T10:32:42;4.40;;;4.00;;
16436;SDS011;8328;52.206;21.006;2023-06-22T10:35:09;3.50;;;3.20;;
16436;SDS011;8328;52.206;21.006;2023-06-22T10:37:42;5.53;;;3.97;;
16436;SDS011;8328;52.206;21.006;2023-06-22T10:40:12;5.17;;;3.60;;
16436;SDS011;8328;52.206;21.006;2023-06-22T10:42:38;3.47;;;3.17;;
16436;SDS011;8328;52.206;21.006;2023-06-22T10:45:05;5.57;;;4.00;;
16436;SDS011;8328;52.206;21.006;2023-06-22T10:47:31;5.40;;;3.93;;
16436;SDS011;8328;52.206;21.006;2023-06-22T10:49:57;8.47;;;3.77;;
16436;SDS011;8328;52.206;21.006;2023-06-22T10:52:23;4.40;;;3.73;;
16436;SDS011;8328;52.206;21.006;2023-06-22T10:54:49;3.70;;;3.40;;
16436;SDS011;8328;52.206;21.006;2023-06-22T10:57:15;3.97;;;3.57;;
16436;SDS011;8328;52.206;21.006;2023-06-22T10:59:41;4.90;;;3.83;;
16436;SDS011;8328;52.206;21.006;2023-06-22T11:02:07;5.03;;;4.03;;
16436;SDS011;8328;52.206;21.006;2023-06-22T11:04:33;5.50;;;3.70;;
16436;SDS011;8328;52.206;21.006;2023-06-22T11:07:00;5.10;;;3.70;;
16436;SDS011;8328;52.206;21.006;2023-06-22T11:09:26;7.00;;;3.93;;
16436;SDS011;8328;52.206;21.006;2023-06-22T11:11:52;3.83;;;3.30;;
16436;SDS011;8328;52.206;21.006;2023-06-22T11:14:19;5.50;;;3.80;;
16436;SDS011;8328;52.206;21.006;2023-06-22T11:16:45;5.80;;;4.37;;
16436;SDS011;8328;52.206;21.006;2023-06-22T11:19:11;6.53;;;4.77;;
16436;SDS011;8328;52.206;21.006;2023-06-22T11:21:37;4.10;;;3.73;;
16436;SDS011;8328;52.206;21.006;2023-06-22T11:24:04;5.43;;;4.93;;
16436;SDS011;8328;52.206;21.006;2023-06-22T11:26:30;4.40;;;3.60;;
16436;SDS011;8328;52.206;21.006;2023-06-22T11:28:57;5.73;;;3.87;;
16436;SDS011;8328;52.206;21.006;2023-06-22T11:31:23;4.63;;;4.00;;
16436;SDS011;8328;52.206;21.006;2023-06-22T11:33:49;6.47;;;3.90;;
16436;SDS011;8328;52.206;21.006;2023-06-22T11:36:15;7.33;;;4.17;;
16436;SDS011;8328;52.206;21.006;2023-06-22T11:38:42;6.43;;;4.07;;
16436;SDS011;8328;52.206;21.006;2023-06-22T11:41:09;4.83;;;3.70;;
16436;SDS011;8328;52.206;21.006;2023-06-22T11:43:36;4.53;;;3.70;;
16436;SDS011;8328;52.206;21.006;2023-06-22T11:46:04;5.37;;;3.60;;
16436;SDS011;8328;52.206;21.006;2023-06-22T11:48:30;4.03;;;3.63;;
16436;SDS011;8328;52.206;21.006;2023-06-22T11:50:56;5.43;;;3.40;;
16436;SDS011;8328;52.206;21.006;2023-06-22T11:53:25;6.33;;;3.73;;
16436;SDS011;8328;52.206;21.006;2023-06-22T11:55:52;6.90;;;3.60;;
16436;SDS011;8328;52.206;21.006;2023-06-22T11:58:19;4.83;;;3.63;;
16436;SDS011;8328;52.206;21.006;2023-06-22T12:00:45;4.63;;;4.13;;
16436;SDS011;8328;52.206;21.006;2023-06-22T12:03:11;4.07;;;3.67;;
16436;SDS011;8328;52.206;21.006;2023-06-22T12:05:39;9.03;;;4.17;;
16436;SDS011;8328;52.206;21.006;2023-06-22T12:08:07;6.00;;;3.67;;
16436;SDS011;8328;52.206;21.006;2023-06-22T12:10:33;3.73;;;3.33;;
16436;SDS011;8328;52.206;21.006;2023-06-22T12:12:59;4.63;;;3.60;;
16436;SDS011;8328;52.206;21.006;2023-06-22T12:15:25;3.90;;;3.60;;
16436;SDS011;8328;52.206;21.006;2023-06-22T12:17:52;4.77;;;3.77;;
16436;SDS011;8328;52.206;21.006;2023-06-22T12:20:18;5.10;;;3.80;;
16436;SDS011;8328;52.206;21.006;2023-06-22T12:22:44;4.93;;;3.53;;
16436;SDS011;8328;52.206;21.006;2023-06-22T12:25:10;4.87;;;3.73;;
16436;SDS011;8328;52.206;21.006;2023-06-22T12:27:37;4.80;;;3.33;;
16436;SDS011;8328;52.206;21.006;2023-06-22T12:30:03;5.40;;;3.40;;
16436;SDS011;8328;52.206;21.006;2023-06-22T12:32:29;4.90;;;3.73;;
16436;SDS011;8328;52.206;21.006;2023-06-22T12:34:55;4.00;;;3.60;;
16436;SDS011;8328;52.206;21.006;2023-06-22T12:37:22;4.37;;;3.67;;
16436;SDS011;8328;52.206;21.006;2023-06-22T12:39:48;3.97;;;3.60;;
16436;SDS011;8328;52.206;21.006;2023-06-22T12:42:17;3.67;;;3.37;;
16436;SDS011;8328;52.206;21.006;2023-06-22T12:44:43;5.20;;;3.90;;
16436;SDS011;8328;52.206;21.006;2023-06-22T12:47:09;4.75;;;3.63;;
16436;SDS011;8328;52.206;21.006;2023-06-22T12:49:36;3.95;;;3.65;;
16436;SDS011;8328;52.206;21.006;2023-06-22T12:52:02;4.47;;;3.40;;
16436;SDS011;8328;52.206;21.006;2023-06-22T12:54:28;3.33;;;3.03;;
16436;SDS011;8328;52.206;21.006;2023-06-22T12:56:55;4.25;;;3.30;;
16436;SDS011;8328;52.206;21.006;2023-06-22T12:59:21;5.10;;;3.60;;
16436;SDS011;8328;52.206;21.006;2023-06-22T13:01:48;3.53;;;3.22;;
16436;SDS011;8328;52.206;21.006;2023-06-22T13:04:16;4.70;;;3.88;;
16436;SDS011;8328;52.206;21.006;2023-06-22T13:06:43;4.95;;;3.80;;
16436;SDS011;8328;52.206;21.006;2023-06-22T13:09:13;3.85;;;3.53;;
16436;SDS011;8328;52.206;21.006;2023-06-22T13:11:39;3.88;;;3.47;;
16436;SDS011;8328;52.206;21.006;2023-06-22T13:14:06;4.65;;;3.08;;
16436;SDS011;8328;52.206;21.006;2023-06-22T13:16:32;3.72;;;3.25;;
16436;SDS011;8328;52.206;21.006;2023-06-22T13:18:59;4.55;;;3.40;;
16436;SDS011;8328;52.206;21.006;2023-06-22T13:21:25;8.38;;;3.53;;
16436;SDS011;8328;52.206;21.006;2023-06-22T13:23:51;3.65;;;3.35;;
16436;SDS011;8328;52.206;21.006;2023-06-22T13:26:17;3.80;;;3.38;;
16436;SDS011;8328;52.206;21.006;2023-06-22T13:28:43;6.00;;;4.00;;
16436;SDS011;8328;52.206;21.006;2023-06-22T13:31:09;5.80;;;3.80;;
16436;SDS011;8328;52.206;21.006;2023-06-22T13:33:35;3.97;;;3.67;;
16436;SDS011;8328;52.206;21.006;2023-06-22T13:36:01;5.95;;;4.43;;
16436;SDS011;8328;52.206;21.006;2023-06-22T13:38:28;4.53;;;4.00;;
16436;SDS011;8328;52.206;21.006;2023-06-22T13:40:56;4.20;;;3.80;;
16436;SDS011;8328;52.206;21.006;2023-06-22T13:43:24;4.07;;;3.70;;
16436;SDS011;8328;52.206;21.006;2023-06-22T13:45:50;4.72;;;3.50;;
16436;SDS011;8328;52.206;21.006;2023-06-22T13:48:16;3.78;;;3.47;;
16436;SDS011;8328;52.206;21.006;2023-06-22T13:50:43;3.88;;;3.58;;
16436;SDS011;8328;52.206;21.006;2023-06-22T13:53:10;3.95;;;3.30;;
16436;SDS011;8328;52.206;21.006;2023-06-22T13:55:36;3.42;;;3.13;;
16436;SDS011;8328;52.206;21.006;2023-06-22T13:58:02;4.50;;;3.70;;
16436;SDS011;8328;52.206;21.006;2023-06-22T14:00:28;7.32;;;4.20;;
16436;SDS011;8328;52.206;21.006;2023-06-22T14:02:54;5.55;;;3.00;;
16436;SDS011;8328;52.206;21.006;2023-06-22T14:05:21;3.88;;;3.53;;
16436;SDS011;8328;52.206;21.006;2023-06-22T14:07:48;4.65;;;3.72;;
16436;SDS011;8328;52.206;21.006;2023-06-22T14:10:14;5.60;;;5.20;;
16436;SDS011;8328;52.206;21.006;2023-06-22T14:12:40;3.80;;;3.47;;
16436;SDS011;8328;52.206;21.006;2023-06-22T14:15:06;3.78;;;3.30;;
16436;SDS011;8328;52.206;21.006;2023-06-22T14:17:32;3.85;;;3.55;;
16436;SDS011;8328;52.206;21.006;2023-06-22T14:19:58;4.07;;;3.78;;
16436;SDS011;8328;52.206;21.006;2023-06-22T14:22:25;4.07;;;3.50;;
16436;SDS011;8328;52.206;21.006;2023-06-22T14:24:54;4.47;;;3.55;;
16436;SDS011;8328;52.206;21.006;2023-06-22T14:27:22;3.70;;;3.40;;
16436;SDS011;8328;52.206;21.006;2023-06-22T14:29:48;3.90;;;3.60;;
16436;SDS011;8328;52.206;21.006;2023-06-22T14:32:16;3.85;;;3.55;;
16436;SDS011;8328;52.206;21.006;2023-06-22T14:34:42;4.28;;;3.90;;
16436;SDS011;8328;52.206;21.006;2023-06-22T14:37:08;3.60;;;3.30;;
16436;SDS011;8328;52.206;21.006;2023-06-22T14:39:35;4.22;;;3.70;;